Meteo Giornale » Osservazioni meteo Italia » Milano-Linate

ore: 02:20 - Osservazioni Meteo Milano-Linate
Lat. 45° 26' N Lon. 9° 17' E Alt. 107 metri s.l.m.

sereno Europe/Rome

22 °C

Sereno

Temp. 24 Ore

16 °C

32 °C

Sud/Sud-Est

13 Km/h

Dew point 14 °C

Umidità 60 %

Visibilità  10 Km

Il sole sorge alle ore 05:40

Il sole tramonta alle ore 20:59

Data e Ora Cielo e Fenomeni T °C DP °C Um. % Pres. hPa Vis. km Vento km/h
Oggi h: 02:20 sereno Sereno 22 14 60 1014 10 S/SE 13
Oggi h: 01:50 sereno Sereno 22 10 46 1014 10 S/SE 9.3
Oggi h: 01:20 sereno Sereno 24 4 27 1014 10 E 11.1
Oggi h: 00:50 sereno Sereno 23 5 31 1013 10 N 5.5
Oggi h: 00:20 sereno Sereno 24 5 29 1013 10 N 1.8
Ieri h: 23:50 sereno Sereno 25 3 23 1013 10 N 1.8
Ieri h: 23:20 sereno Sereno 27 3 21 1014 10 NO 9.3
Ieri h: 22:50 sereno Sereno 27 3 21 1013 10 N 14.8
Ieri h: 22:20 poco_nuvoloso Poco Nuvoloso 27 6 26 1013 10 N/NO 11.1
Ieri h: 21:50 poco_nuvoloso Poco Nuvoloso 27 10 34 1013 10 N/NO 7.4
Ieri h: 21:20 poco_nuvoloso Poco Nuvoloso 28 9 30 1013 10 O/NO 7.4
Ieri h: 20:50 sereno Sereno 28 8 28 1013 10 O 7.4
Ieri h: 20:20 sereno Sereno 29 8 26 1013 10 O 7.4
Ieri h: 19:50 sereno Sereno 30 8 25 1013 10 O 13
Ieri h: 19:20 sereno Sereno 30 8 25 1012 10 O 14.8
Ieri h: 18:50 sereno Sereno 31 8 23 1012 10 O 13
Ieri h: 18:20 sereno Sereno 31 8 23 1012 10 O 14.8
Ieri h: 17:50 poco_nuvoloso Poco Nuvoloso 32 8 22 1013 10 O/SO 14.8
Ieri h: 17:20 poco_nuvoloso Poco Nuvoloso 32 7 21 1013 10 O 13
Ieri h: 16:50 poco_nuvoloso Poco Nuvoloso 32 9 24 1013 10 O 9.3
Ieri h: 16:20 poco_nuvoloso Poco Nuvoloso 32 7 21 1013 10 O/NO 11.1
Ieri h: 15:50 poco_nuvoloso Poco Nuvoloso 31 7 22 1014 10 O/SO 13
Ieri h: 15:20 poco_nuvoloso Poco Nuvoloso 31 9 25 1014 10 O 13
Ieri h: 14:50 sereno Sereno 31 11 29 1015 10 O/SO 9.3
Ieri h: 14:20 sereno Sereno 30 11 30 1015 10 N/NO 7.4
Ieri h: 13:50 sereno Sereno 29 10 30 1015 10 SO 7.4
Ieri h: 13:20 sereno Sereno 28 11 34 1016 10 SO 7.4
Ieri h: 12:50 sereno Sereno 28 11 34 1016 10 N 5.5
Ieri h: 12:20 sereno Sereno 27 13 42 1016 10 N 1.8
Ieri h: 11:50 sereno Sereno 27 14 44 1017 10 N 1.8
Ieri h: 11:20 sereno Sereno 25 14 50 1017 10 N 3.7
Ieri h: 10:50 nuvoloso Nuvoloso 24 13 50 1017 10 N 3.7
Ieri h: 10:20 nuvoloso Nuvoloso 24 12 47 1017 10 N 5.5
Ieri h: 09:50 nuvoloso Nuvoloso 24 13 50 1017 10 N 1.8
Ieri h: 09:20 sereno Sereno 23 13 53 1017 10 N 3.7
Ieri h: 08:50 sereno Sereno 22 13 56 1017 10 N 1.8
Ieri h: 08:20 sereno Sereno 20 13 64 1017 10 N 5.5
Ieri h: 07:50 sereno Sereno 19 13 68 1017 10 N 5.5
Ieri h: 07:20 sereno Sereno 18 13 72 1017 10 N 1.8
Ieri h: 06:50 sereno Sereno 17 13 77 1016 10 N 5.5
Ieri h: 06:20 sereno Sereno 16 12 77 1016 10 N 5.5
Ieri h: 05:50 sereno Sereno 17 12 72 1016 10 O 7.4
Ieri h: 05:20 sereno Sereno 17 12 72 1016 10 N 5.5
Ieri h: 04:50 sereno Sereno 17 12 72 1016 10 O 7.4
Ieri h: 04:20 sereno Sereno 16 11 72 1016 10 S/SO 11.1
Ieri h: 03:50 sereno Sereno 17 11 67 1016 10 S 7.4